Gorgos — EAFY — position and weather

sailwx.info

Track history (hours):
 
Tides and Currents Weather Stations Pressure Air Temp Water Temp Dewpoint Dewpoint Depression Visibility Wind Speed Wind Dir Waves Ship Positions

Gorgos

Last reported at 2017-Sep-22 02:00 UTC. Time now 2017-Sep-22 11:57 UTC.
Position N 43°22' W 003°05'.

Length 26 m; draft 4.4 m.

Type: Tug. MMSI: 224085760.

Date/timePositionNaut miles runAvg speedWind from/ knotsBaromVisibWave heightAir tempDewpointWater temp
2017-Sep-22 02:00N 43°22' W 003°05'0 0.0
2017-Sep-22 01:30N 43°22' W 003°05'1 1.2
2017-Sep-22 01:00N 43°22' W 003°06'1 1.5
2017-Sep-22 00:30N 43°22' W 003°05'1 1.2
2017-Sep-22 00:00N 43°22' W 003°05'0 0.0
2017-Sep-21 23:30N 43°22' W 003°05'0 0.0
2017-Sep-21 23:00N 43°22' W 003°05'0 0.0
2017-Sep-21 22:30N 43°22' W 003°05'0 0.0
2017-Sep-21 22:00N 43°22' W 003°05'0 0.0
2017-Sep-21 21:30N 43°22' W 003°05'0 0.0
2017-Sep-21 21:00N 43°22' W 003°05'0 0.0
2017-Sep-21 20:30N 43°22' W 003°05'0 0.0
2017-Sep-21 20:00N 43°22' W 003°05'0 0.0
2017-Sep-21 19:30N 43°22' W 003°05'0 0.0
2017-Sep-21 19:00N 43°22' W 003°05'1 2.9
2017-Sep-21 18:30N 43°22' W 003°03'1 2.2
2017-Sep-21 18:00N 43°21' W 003°04'1 2.2
2017-Sep-21 17:30N 43°21' W 003°03'1 2.0
2017-Sep-21 17:00N 43°20' W 003°02'0 0.9
2017-Sep-21 16:30N 43°20' W 003°02'1 3.0
2017-Sep-21 16:00N 43°21' W 003°03'1 2.7
2017-Sep-21 15:30N 43°22' W 003°05'0 0.3
2017-Sep-21 15:00N 43°22' W 003°05'0 0.0
2017-Sep-21 14:30N 43°22' W 003°05'0 0.0
2017-Sep-21 12:45N 43°22' W 003°05'0 0.0
2017-Sep-21 09:24N 43°22' W 003°05'0 0.0
2017-Sep-21 07:49N 43°22' W 003°05'0 0.0
2017-Sep-21 07:30N 43°22' W 003°05'0 0.0
2017-Sep-21 07:00N 43°22' W 003°05'0 0.0
2017-Sep-21 06:30N 43°22' W 003°05'0 0.0
2017-Sep-21 06:00N 43°22' W 003°05'0 0.0
2017-Sep-21 05:30N 43°22' W 003°05'0 0.0
2017-Sep-21 05:00N 43°22' W 003°05'0 0.0
2017-Sep-21 04:30N 43°22' W 003°05'0 0.0
2017-Sep-21 04:00N 43°22' W 003°05'0 0.0
2017-Sep-21 03:30N 43°22' W 003°05'0 0.0
2017-Sep-21 03:00N 43°22' W 003°05'0 0.0
2017-Sep-21 02:30N 43°22' W 003°05'0 0.0
2017-Sep-21 02:00N 43°22' W 003°05'0 0.0
2017-Sep-21 01:30N 43°22' W 003°05'0 0.0
2017-Sep-21 01:00N 43°22' W 003°05'0 0.0
2017-Sep-21 00:30N 43°22' W 003°05'0 0.0
2017-Sep-21 00:00N 43°22' W 003°05'0 0.0
2017-Sep-20 23:30N 43°22' W 003°05'0 0.0
2017-Sep-20 23:00N 43°22' W 003°05'0 0.0
2017-Sep-20 22:30N 43°22' W 003°05'0 0.0
2017-Sep-20 22:00N 43°22' W 003°05'0 0.0
2017-Sep-20 21:30N 43°22' W 003°05'0 0.0
2017-Sep-20 21:00N 43°22' W 003°05'2 4.7
2017-Sep-20 20:30N 43°21' W 003°02'0 0.5
2017-Sep-20 20:00N 43°21' W 003°02'2 4.6
2017-Sep-20 19:30N 43°22' W 003°05'0 0.0
2017-Sep-20 19:00N 43°22' W 003°05'0 0.0
2017-Sep-20 18:30N 43°22' W 003°05'0 0.0
2017-Sep-20 18:00N 43°22' W 003°05'0 0.0
2017-Sep-20 16:54N 43°22' W 003°05'0 0.0
2017-Sep-20 16:30N 43°22' W 003°05'0 0.0
2017-Sep-20 16:00N 43°22' W 003°05'1 2.3
2017-Sep-20 15:30N 43°22' W 003°03'2 3.4
2017-Sep-20 15:00N 43°20' W 003°02'2 2.5
2017-Sep-20 14:00N 43°22' W 003°05'0 0.0
2017-Sep-20 13:30N 43°22' W 003°05'0 0.0
2017-Sep-20 13:00N 43°22' W 003°05'0 0.0
2017-Sep-20 12:30N 43°22' W 003°05'0 0.0
2017-Sep-20 12:00N 43°22' W 003°05'0 0.0
2017-Sep-20 11:30N 43°22' W 003°05'0 0.0
2017-Sep-20 11:00N 43°22' W 003°05'0 0.0
2017-Sep-20 10:30N 43°22' W 003°05'0 0.0
2017-Sep-20 10:00N 43°22' W 003°05'0 0.0
2017-Sep-20 09:30N 43°22' W 003°05'1 1.6
2017-Sep-20 09:00N 43°22' W 003°04'1 1.1
2017-Sep-20 08:31N 43°21' W 003°03'0 0.6
2017-Sep-20 08:00N 43°22' W 003°03'1 2.5
2017-Sep-20 07:30N 43°22' W 003°05'0 0.0
2017-Sep-20 07:00N 43°22' W 003°05'0 0.0
2017-Sep-20 06:30N 43°22' W 003°05'0 0.0
2017-Sep-20 06:00N 43°22' W 003°05'0 0.0
2017-Sep-20 05:31N 43°22' W 003°05'0 0.0
2017-Sep-20 05:00N 43°22' W 003°05'0 0.0
2017-Sep-20 04:30N 43°22' W 003°05'0 0.0
2017-Sep-20 04:00N 43°22' W 003°05'0 0.0
2017-Sep-20 03:30N 43°22' W 003°05'0 0.0
2017-Sep-20 03:00N 43°22' W 003°05'0 0.0
2017-Sep-20 02:31N 43°22' W 003°05'0 0.0
2017-Sep-20 02:01N 43°22' W 003°05'0 0.0
2017-Sep-20 01:31N 43°22' W 003°05'0 0.0
2017-Sep-20 01:00N 43°22' W 003°05'0 0.0
2017-Sep-20 00:30N 43°22' W 003°05'0 0.0
2017-Sep-20 00:00N 43°22' W 003°05'0 0.0
2017-Sep-19 23:30N 43°22' W 003°05'0 0.0
2017-Sep-19 23:00N 43°22' W 003°05'0 0.0
2017-Sep-19 22:30N 43°22' W 003°05'0 0.0
2017-Sep-19 22:00N 43°22' W 003°05'0 0.0
2017-Sep-19 21:30N 43°22' W 003°05'0 0.0
2017-Sep-19 21:00N 43°22' W 003°05'0 0.0
2017-Sep-19 20:30N 43°22' W 003°05'0 0.0
2017-Sep-19 20:00N 43°22' W 003°05'3 5.3
2017-Sep-19 19:30N 43°20' W 003°02'0 0.9
2017-Sep-19 19:00N 43°21' W 003°02'1 2.3
2017-Sep-19 18:30N 43°22' W 003°03'2 4.3
2017-Sep-19 18:00N 43°22' W 003°06'0 0.4
2017-Sep-19 17:30N 43°22' W 003°06'1 1.6
2017-Sep-19 17:00N 43°22' W 003°05'0 0.0
2017-Sep-19 16:31N 43°22' W 003°05'1 3.0
2017-Sep-19 16:00N 43°22' W 003°03'1 0.4
2017-Sep-19 12:42N 43°22' W 003°05'0 0.0
2017-Sep-19 12:30N 43°22' W 003°05'0 0.0
2017-Sep-19 12:01N 43°22' W 003°05'0 0.0
2017-Sep-19 11:30N 43°22' W 003°05'2 3.2
2017-Sep-19 11:00N 43°21' W 003°03'0 1.0
2017-Sep-19 10:31N 43°21' W 003°03'1 2.7
2017-Sep-19 10:00N 43°22' W 003°04'0 0.5
2017-Sep-19 09:30N 43°22' W 003°05'0 0.0
2017-Sep-19 09:01N 43°22' W 003°05'0 0.0
2017-Sep-19 08:31N 43°22' W 003°05'0 0.0
2017-Sep-19 08:01N 43°22' W 003°05'0 0.0
2017-Sep-19 07:30N 43°22' W 003°05'0 0.0
2017-Sep-19 07:00N 43°22' W 003°05'0 0.0
2017-Sep-19 06:30N 43°22' W 003°05'0 0.0
2017-Sep-19 06:00N 43°22' W 003°05'0 0.0
2017-Sep-19 05:30N 43°22' W 003°05'0 0.0
2017-Sep-19 05:00N 43°22' W 003°05'0 0.0
2017-Sep-19 04:30N 43°22' W 003°05'0 0.0
2017-Sep-19 04:00N 43°22' W 003°05'0 0.0
2017-Sep-19 03:31N 43°22' W 003°05'0 0.0
2017-Sep-19 03:00N 43°22' W 003°05'0 0.0
2017-Sep-19 02:31N 43°22' W 003°05'2 4.7
2017-Sep-19 02:00N 43°20' W 003°02'0 0.5
2017-Sep-19 01:30N 43°20' W 003°02'2 3.7
2017-Sep-19 01:00N 43°22' W 003°03'1 2.0
2017-Sep-19 00:30N 43°22' W 003°05'0 0.0
2017-Sep-19 00:01N 43°22' W 003°05'0 0.0
2017-Sep-18 23:30N 43°22' W 003°05'0 0.0
2017-Sep-18 23:00N 43°22' W 003°05'0 0.0
2017-Sep-18 22:30N 43°22' W 003°05'0 0.0
2017-Sep-18 22:00N 43°22' W 003°05'0 0.0
2017-Sep-18 21:30N 43°22' W 003°05'0 0.0
2017-Sep-18 21:01N 43°22' W 003°05'0 0.0
2017-Sep-18 20:30N 43°22' W 003°05'0 0.0
2017-Sep-18 20:00N 43°22' W 003°05'0 0.0
2017-Sep-18 19:30N 43°22' W 003°05'0 0.0
2017-Sep-18 19:00N 43°22' W 003°05'0 0.0
2017-Sep-18 18:31N 43°22' W 003°05'0 0.0
2017-Sep-18 18:00N 43°22' W 003°05'0 0.0
2017-Sep-18 17:30N 43°22' W 003°05'0 0.0
2017-Sep-18 17:00N 43°22' W 003°05'0 0.0
2017-Sep-18 16:30N 43°22' W 003°05'0 0.0
2017-Sep-18 16:00N 43°22' W 003°05'1 1.6
2017-Sep-18 15:30N 43°22' W 003°06'0 0.0
2017-Sep-18 15:00N 43°22' W 003°06'1 1.2
2017-Sep-18 14:30N 43°22' W 003°05'0 0.1
2017-Sep-18 14:00N 43°22' W 003°05'1 1.2
2017-Sep-18 13:30N 43°22' W 003°06'0 0.0
2017-Sep-18 13:00N 43°22' W 003°06'1 1.6
2017-Sep-18 12:30N 43°22' W 003°05'0 0.0
2017-Sep-18 12:00N 43°22' W 003°05'0 0.0
2017-Sep-18 11:30N 43°22' W 003°05'0 0.0
2017-Sep-18 11:01N 43°22' W 003°05'0 0.0
2017-Sep-18 10:31N 43°22' W 003°05'0 0.0
2017-Sep-18 10:00N 43°22' W 003°05'0 0.0
2017-Sep-18 09:30N 43°22' W 003°05'0 0.0
2017-Sep-18 09:00N 43°22' W 003°05'0 0.0
2017-Sep-18 08:30N 43°22' W 003°05'0 0.0
2017-Sep-18 08:01N 43°22' W 003°05'0 0.0
2017-Sep-18 07:30N 43°22' W 003°05'0 0.0
2017-Sep-18 07:01N 43°22' W 003°05'0 0.0
2017-Sep-18 06:30N 43°22' W 003°05'0 0.0
2017-Sep-18 06:00N 43°22' W 003°05'0 0.0
2017-Sep-18 05:30N 43°22' W 003°05'0 0.6
2017-Sep-18 05:00N 43°22' W 003°04'2 3.0
2017-Sep-18 04:30N 43°21' W 003°03'1 1.6
2017-Sep-18 04:00N 43°22' W 003°03'1 3.0
2017-Sep-18 03:30N 43°22' W 003°05'0 0.0
2017-Sep-18 03:01N 43°22' W 003°05'0 0.0
2017-Sep-18 02:30N 43°22' W 003°05'0 0.0
2017-Sep-18 02:00N 43°22' W 003°05'0 0.0
2017-Sep-18 01:31N 43°22' W 003°05'0 0.0
2017-Sep-18 01:01N 43°22' W 003°05'0 0.0
2017-Sep-18 00:30N 43°22' W 003°05'0 0.0
2017-Sep-18 00:00N 43°22' W 003°05'2 3.6
2017-Sep-17 23:30N 43°21' W 003°03'0 0.2
2017-Sep-17 23:00N 43°21' W 003°03'0 0.4
2017-Sep-17 22:30N 43°21' W 003°03'1 2.4
2017-Sep-17 22:00N 43°22' W 003°04'1 1.2
2017-Sep-17 21:30N 43°22' W 003°05'0 0.0
2017-Sep-17 21:00N 43°22' W 003°05'0 0.0
2017-Sep-17 20:30N 43°22' W 003°05'0 0.0
2017-Sep-17 20:01N 43°22' W 003°05'0 0.0
2017-Sep-17 19:30N 43°22' W 003°05'0 0.0
2017-Sep-17 19:00N 43°22' W 003°05'0 0.0
2017-Sep-17 18:30N 43°22' W 003°05'0 0.0
2017-Sep-17 18:01N 43°22' W 003°05'0 0.0
2017-Sep-17 17:30N 43°22' W 003°05'0 0.0
2017-Sep-17 17:00N 43°22' W 003°05'0 0.0
2017-Sep-17 16:30N 43°22' W 003°05'0 0.0
2017-Sep-17 16:01N 43°22' W 003°05'0 0.0
2017-Sep-17 15:31N 43°22' W 003°05'0 0.0
2017-Sep-17 15:01N 43°22' W 003°05'0 0.0
2017-Sep-17 14:30N 43°22' W 003°05'0 0.0
2017-Sep-17 14:00N 43°22' W 003°05'0 0.0
2017-Sep-17 13:31N 43°22' W 003°05'0 0.0
2017-Sep-17 13:00N 43°22' W 003°05'0 0.0
2017-Sep-17 12:31N 43°22' W 003°05'0 0.0
2017-Sep-17 12:00N 43°22' W 003°05'0 0.0
2017-Sep-17 11:30N 43°22' W 003°05'0 0.0
2017-Sep-17 11:00N 43°22' W 003°05'0 0.0
2017-Sep-17 10:30N 43°22' W 003°05'0 0.0
2017-Sep-17 10:00N 43°22' W 003°05'0 0.0
2017-Sep-17 09:30N 43°22' W 003°05'0 0.0
2017-Sep-17 09:00N 43°22' W 003°05'0 0.0
2017-Sep-17 08:30N 43°22' W 003°05'0 0.0
2017-Sep-17 08:01N 43°22' W 003°05'0 0.0
2017-Sep-17 07:30N 43°22' W 003°05'0 0.0
2017-Sep-17 07:01N 43°22' W 003°05'0 0.0
2017-Sep-17 06:30N 43°22' W 003°05'0 0.0
2017-Sep-17 06:01N 43°22' W 003°05'0 0.0
2017-Sep-17 05:31N 43°22' W 003°05'2 3.1
2017-Sep-17 05:01N 43°21' W 003°03'0 0.7
2017-Sep-17 04:30N 43°21' W 003°03'2 3.0
2017-Sep-17 04:00N 43°22' W 003°05'0 0.0
2017-Sep-17 03:30N 43°22' W 003°05'0 0.0
2017-Sep-17 03:00N 43°22' W 003°05'0 0.0
2017-Sep-17 02:31N 43°22' W 003°05'0 0.0
2017-Sep-17 02:00N 43°22' W 003°05'0 0.0
2017-Sep-17 01:30N 43°22' W 003°05'0 0.0
2017-Sep-17 01:00N 43°22' W 003°05'1 1.6
2017-Sep-17 00:30N 43°22' W 003°06'0 0.0
2017-Sep-17 00:00N 43°22' W 003°06'0 0.0
2017-Sep-16 23:31N 43°22' W 003°06'1 1.2
2017-Sep-16 23:01N 43°22' W 003°05'1 1.4
2017-Sep-16 22:31N 43°22' W 003°05'0 0.2
2017-Sep-16 22:00N 43°22' W 003°05'0 0.0
2017-Sep-16 21:30N 43°22' W 003°05'0 0.0
2017-Sep-16 21:00N 43°22' W 003°05'0 0.0
2017-Sep-16 20:30N 43°22' W 003°05'0 0.0
2017-Sep-16 20:00N 43°22' W 003°05'0 0.0
2017-Sep-16 19:30N 43°22' W 003°05'0 0.0
2017-Sep-16 19:00N 43°22' W 003°05'0 0.0
2017-Sep-16 18:30N 43°22' W 003°05'0 0.0
2017-Sep-16 18:00N 43°22' W 003°05'0 0.0
2017-Sep-16 17:30N 43°22' W 003°05'0 0.0
2017-Sep-16 17:00N 43°22' W 003°05'0 0.0
2017-Sep-16 16:30N 43°22' W 003°05'0 0.0
2017-Sep-16 16:00N 43°22' W 003°05'2 3.6
2017-Sep-16 15:31N 43°21' W 003°03'1 2.4
2017-Sep-16 15:00N 43°22' W 003°03'1 2.1
2017-Sep-16 14:30N 43°22' W 003°05'0 0.0
2017-Sep-16 14:00N 43°22' W 003°05'0 0.0
2017-Sep-16 13:31N 43°22' W 003°05'0 0.0
2017-Sep-16 13:00N 43°22' W 003°05'0 0.0
2017-Sep-16 12:30N 43°22' W 003°05'0 0.0
2017-Sep-16 12:00N 43°22' W 003°05'0 0.0
2017-Sep-16 11:30N 43°22' W 003°05'0 0.0
2017-Sep-16 11:00N 43°22' W 003°05'0 0.0
2017-Sep-16 10:30N 43°22' W 003°05'0 0.0
2017-Sep-16 10:00N 43°22' W 003°05'0 0.0
2017-Sep-16 09:30N 43°22' W 003°05'0 0.0
2017-Sep-16 09:00N 43°22' W 003°05'0 0.0
2017-Sep-16 08:30N 43°22' W 003°05'0 0.0
2017-Sep-16 08:00N 43°22' W 003°05'0 0.0
2017-Sep-16 07:30N 43°22' W 003°05'0 0.0
2017-Sep-16 07:00N 43°22' W 003°05'0 0.0
2017-Sep-16 06:30N 43°22' W 003°05'0 0.0
2017-Sep-16 06:00N 43°22' W 003°05'0 0.0
2017-Sep-16 05:30N 43°22' W 003°05'0 0.0
2017-Sep-16 05:00N 43°22' W 003°05'0 0.0
2017-Sep-16 04:30N 43°22' W 003°05'0 0.0
2017-Sep-16 04:00N 43°22' W 003°05'0 0.0
2017-Sep-16 03:30N 43°22' W 003°05'0 0.0
2017-Sep-16 03:00N 43°22' W 003°05'0 0.0
2017-Sep-16 02:30N 43°22' W 003°05'0 0.0
2017-Sep-16 02:00N 43°22' W 003°05'0 0.0
2017-Sep-16 01:30N 43°22' W 003°05'0 0.0
2017-Sep-16 01:00N 43°22' W 003°05'0 0.0
2017-Sep-16 00:30N 43°22' W 003°05'0 0.0
2017-Sep-16 00:01N 43°22' W 003°05'0 0.0
2017-Sep-15 23:30N 43°22' W 003°05'0 0.0
2017-Sep-15 23:00N 43°22' W 003°05'0 0.0
2017-Sep-15 22:30N 43°22' W 003°05'0 0.0
2017-Sep-15 22:01N 43°22' W 003°05'0 0.0
2017-Sep-15 21:30N 43°22' W 003°05'1 2.4
2017-Sep-15 21:01N 43°22' W 003°03'1 2.1
2017-Sep-15 20:30N 43°21' W 003°03'2 3.4
2017-Sep-15 20:00N 43°22' W 003°05'0 0.0
2017-Sep-15 19:30N 43°22' W 003°05'0 0.0
2017-Sep-15 19:00N 43°22' W 003°05'0 0.0
2017-Sep-15 18:30N 43°22' W 003°05'0 0.0
2017-Sep-15 18:00N 43°22' W 003°05'0 0.0
2017-Sep-15 17:30N 43°22' W 003°05'0 0.0
2017-Sep-15 17:00N 43°22' W 003°05'0 0.0
2017-Sep-15 16:30N 43°22' W 003°05'0 0.0
2017-Sep-15 16:00N 43°22' W 003°05'0 0.0
2017-Sep-15 15:30N 43°22' W 003°05'0 0.0
2017-Sep-15 15:00N 43°22' W 003°05'0 0.0
2017-Sep-15 14:30N 43°22' W 003°05'3 5.3
2017-Sep-15 14:00N 43°20' W 003°02'0 0.3
2017-Sep-15 13:30N 43°20' W 003°02'3 5.4
2017-Sep-15 13:00N 43°22' W 003°05'0 0.0
2017-Sep-15 12:30N 43°22' W 003°05'0 0.0
2017-Sep-15 12:00N 43°22' W 003°05'0 0.0
2017-Sep-15 11:30N 43°22' W 003°05'0 0.0
2017-Sep-15 11:00N 43°22' W 003°05'0 0.0
2017-Sep-15 10:30N 43°22' W 003°05'0 0.0
2017-Sep-15 10:00N 43°22' W 003°05'0 0.0
2017-Sep-15 09:30N 43°22' W 003°05'0 0.0
2017-Sep-15 09:00N 43°22' W 003°05'0 0.0
2017-Sep-15 08:30N 43°22' W 003°05'0 0.0
2017-Sep-15 08:00N 43°22' W 003°05'0 0.0
2017-Sep-15 07:30N 43°22' W 003°05'0 0.4
2017-Sep-15 07:00N 43°22' W 003°05'0 0.7
2017-Sep-15 06:31N 43°22' W 003°05'1 1.8
2017-Sep-15 06:00N 43°23' W 003°05'0 0.2
2017-Sep-15 05:30N 43°22' W 003°05'1 1.5
2017-Sep-15 05:00N 43°22' W 003°05'0 0.0
2017-Sep-15 04:30N 43°22' W 003°05'0 0.0
2017-Sep-15 04:00N 43°22' W 003°05'0 0.0
2017-Sep-15 03:30N 43°22' W 003°05'0 0.0
2017-Sep-15 03:00N 43°22' W 003°05'0 0.0
2017-Sep-15 02:30N 43°22' W 003°05'0 0.0
2017-Sep-15 02:00N 43°22' W 003°05'0 0.0
2017-Sep-15 01:30N 43°22' W 003°05'0 0.0
2017-Sep-15 01:00N 43°22' W 003°05'0 0.0
2017-Sep-15 00:30N 43°22' W 003°05'0 0.0
2017-Sep-15 00:00N 43°22' W 003°05'0 0.0
2017-Sep-14 23:30N 43°22' W 003°05'0 0.0
2017-Sep-14 23:00N 43°22' W 003°05'0 0.0
2017-Sep-14 22:30N 43°22' W 003°05'0 0.0
2017-Sep-14 22:00N 43°22' W 003°05'0 0.0
2017-Sep-14 21:30N 43°22' W 003°05'0 0.0
2017-Sep-14 21:00N 43°22' W 003°05'0 0.0
2017-Sep-14 20:30N 43°22' W 003°05'0 0.0
2017-Sep-14 20:00N 43°22' W 003°05'0 0.0
2017-Sep-14 19:30N 43°22' W 003°05'0 0.0
2017-Sep-14 19:00N 43°22' W 003°05'0 0.0
2017-Sep-14 18:30N 43°22' W 003°05'1 1.9
2017-Sep-14 18:00N 43°22' W 003°06'0 0.9
2017-Sep-14 17:30N 43°22' W 003°06'0 0.9
2017-Sep-14 17:00N 43°22' W 003°05'1 1.5
2017-Sep-14 16:30N 43°22' W 003°05'0 0.0
2017-Sep-14 16:00N 43°22' W 003°05'0 0.0
2017-Sep-14 15:30N 43°22' W 003°05'0 0.0
2017-Sep-14 15:00N 43°22' W 003°05'0 0.0
2017-Sep-14 14:30N 43°22' W 003°05'0 0.0
2017-Sep-14 14:01N 43°22' W 003°05'0 0.0
2017-Sep-14 13:30N 43°22' W 003°05'1 1.4
2017-Sep-14 13:00N 43°22' W 003°06'0 0.0
2017-Sep-14 12:30N 43°22' W 003°06'1 1.4
2017-Sep-14 12:00N 43°22' W 003°05'0 0.0
2017-Sep-14 11:30N 43°22' W 003°05'0 0.0
2017-Sep-14 11:00N 43°22' W 003°05'  
Track history (hours):
 
Tides and Currents Weather Stations Pressure Air Temp Water Temp Dewpoint Dewpoint Depression Visibility Wind Speed Wind Dir Waves Ship Positions

Gorgos

Last reported at 2017-Sep-22 02:00 UTC. Time now 2017-Sep-22 11:57 UTC.
Position N 43°22' W 003°05'.

Length 26 m; draft 4.4 m.

Type: Tug. MMSI: 224085760.

Date/timePositionNaut miles runAvg speedWind from/ knotsBaromVisibWave heightAir tempDewpointWater temp
2017-Sep-22 02:00N 43°22' W 003°05'0 0.0
2017-Sep-22 01:30N 43°22' W 003°05'1 1.2
2017-Sep-22 01:00N 43°22' W 003°06'1 1.5
2017-Sep-22 00:30N 43°22' W 003°05'1 1.2
2017-Sep-22 00:00N 43°22' W 003°05'0 0.0
2017-Sep-21 23:30N 43°22' W 003°05'0 0.0
2017-Sep-21 23:00N 43°22' W 003°05'0 0.0
2017-Sep-21 22:30N 43°22' W 003°05'0 0.0
2017-Sep-21 22:00N 43°22' W 003°05'0 0.0
2017-Sep-21 21:30N 43°22' W 003°05'0 0.0
2017-Sep-21 21:00N 43°22' W 003°05'0 0.0
2017-Sep-21 20:30N 43°22' W 003°05'0 0.0
2017-Sep-21 20:00N 43°22' W 003°05'0 0.0
2017-Sep-21 19:30N 43°22' W 003°05'0 0.0
2017-Sep-21 19:00N 43°22' W 003°05'1 2.9
2017-Sep-21 18:30N 43°22' W 003°03'1 2.2
2017-Sep-21 18:00N 43°21' W 003°04'1 2.2
2017-Sep-21 17:30N 43°21' W 003°03'1 2.0
2017-Sep-21 17:00N 43°20' W 003°02'0 0.9
2017-Sep-21 16:30N 43°20' W 003°02'1 3.0
2017-Sep-21 16:00N 43°21' W 003°03'1 2.7
2017-Sep-21 15:30N 43°22' W 003°05'0 0.3
2017-Sep-21 15:00N 43°22' W 003°05'0 0.0
2017-Sep-21 14:30N 43°22' W 003°05'0 0.0
2017-Sep-21 12:45N 43°22' W 003°05'0 0.0
2017-Sep-21 09:24N 43°22' W 003°05'0 0.0
2017-Sep-21 07:49N 43°22' W 003°05'0 0.0
2017-Sep-21 07:30N 43°22' W 003°05'0 0.0
2017-Sep-21 07:00N 43°22' W 003°05'0 0.0
2017-Sep-21 06:30N 43°22' W 003°05'0 0.0
2017-Sep-21 06:00N 43°22' W 003°05'0 0.0
2017-Sep-21 05:30N 43°22' W 003°05'0 0.0
2017-Sep-21 05:00N 43°22' W 003°05'0 0.0
2017-Sep-21 04:30N 43°22' W 003°05'0 0.0
2017-Sep-21 04:00N 43°22' W 003°05'0 0.0
2017-Sep-21 03:30N 43°22' W 003°05'0 0.0
2017-Sep-21 03:00N 43°22' W 003°05'0 0.0
2017-Sep-21 02:30N 43°22' W 003°05'0 0.0
2017-Sep-21 02:00N 43°22' W 003°05'0 0.0
2017-Sep-21 01:30N 43°22' W 003°05'0 0.0
2017-Sep-21 01:00N 43°22' W 003°05'0 0.0
2017-Sep-21 00:30N 43°22' W 003°05'0 0.0
2017-Sep-21 00:00N 43°22' W 003°05'0 0.0
2017-Sep-20 23:30N 43°22' W 003°05'0 0.0
2017-Sep-20 23:00N 43°22' W 003°05'0 0.0
2017-Sep-20 22:30N 43°22' W 003°05'0 0.0
2017-Sep-20 22:00N 43°22' W 003°05'0 0.0
2017-Sep-20 21:30N 43°22' W 003°05'0 0.0
2017-Sep-20 21:00N 43°22' W 003°05'2 4.7
2017-Sep-20 20:30N 43°21' W 003°02'0 0.5
2017-Sep-20 20:00N 43°21' W 003°02'2 4.6
2017-Sep-20 19:30N 43°22' W 003°05'0 0.0
2017-Sep-20 19:00N 43°22' W 003°05'0 0.0
2017-Sep-20 18:30N 43°22' W 003°05'0 0.0
2017-Sep-20 18:00N 43°22' W 003°05'0 0.0
2017-Sep-20 16:54N 43°22' W 003°05'0 0.0
2017-Sep-20 16:30N 43°22' W 003°05'0 0.0
2017-Sep-20 16:00N 43°22' W 003°05'1 2.3
2017-Sep-20 15:30N 43°22' W 003°03'2 3.4
2017-Sep-20 15:00N 43°20' W 003°02'2 2.5
2017-Sep-20 14:00N 43°22' W 003°05'0 0.0
2017-Sep-20 13:30N 43°22' W 003°05'0 0.0
2017-Sep-20 13:00N 43°22' W 003°05'0 0.0
2017-Sep-20 12:30N 43°22' W 003°05'0 0.0
2017-Sep-20 12:00N 43°22' W 003°05'0 0.0
2017-Sep-20 11:30N 43°22' W 003°05'0 0.0
2017-Sep-20 11:00N 43°22' W 003°05'0 0.0
2017-Sep-20 10:30N 43°22' W 003°05'0 0.0
2017-Sep-20 10:00N 43°22' W 003°05'0 0.0
2017-Sep-20 09:30N 43°22' W 003°05'1 1.6
2017-Sep-20 09:00N 43°22' W 003°04'1 1.1
2017-Sep-20 08:31N 43°21' W 003°03'0 0.6
2017-Sep-20 08:00N 43°22' W 003°03'1 2.5
2017-Sep-20 07:30N 43°22' W 003°05'0 0.0
2017-Sep-20 07:00N 43°22' W 003°05'0 0.0
2017-Sep-20 06:30N 43°22' W 003°05'0 0.0
2017-Sep-20 06:00N 43°22' W 003°05'0 0.0
2017-Sep-20 05:31N 43°22' W 003°05'0 0.0
2017-Sep-20 05:00N 43°22' W 003°05'0 0.0
2017-Sep-20 04:30N 43°22' W 003°05'0 0.0
2017-Sep-20 04:00N 43°22' W 003°05'0 0.0
2017-Sep-20 03:30N 43°22' W 003°05'0 0.0
2017-Sep-20 03:00N 43°22' W 003°05'0 0.0
2017-Sep-20 02:31N 43°22' W 003°05'0 0.0
2017-Sep-20 02:01N 43°22' W 003°05'0 0.0
2017-Sep-20 01:31N 43°22' W 003°05'0 0.0
2017-Sep-20 01:00N 43°22' W 003°05'0 0.0
2017-Sep-20 00:30N 43°22' W 003°05'0 0.0
2017-Sep-20 00:00N 43°22' W 003°05'0 0.0
2017-Sep-19 23:30N 43°22' W 003°05'0 0.0
2017-Sep-19 23:00N 43°22' W 003°05'0 0.0
2017-Sep-19 22:30N 43°22' W 003°05'0 0.0
2017-Sep-19 22:00N 43°22' W 003°05'0 0.0
2017-Sep-19 21:30N 43°22' W 003°05'0 0.0
2017-Sep-19 21:00N 43°22' W 003°05'0 0.0
2017-Sep-19 20:30N 43°22' W 003°05'0 0.0
2017-Sep-19 20:00N 43°22' W 003°05'3 5.3
2017-Sep-19 19:30N 43°20' W 003°02'0 0.9
2017-Sep-19 19:00N 43°21' W 003°02'1 2.3
2017-Sep-19 18:30N 43°22' W 003°03'2 4.3
2017-Sep-19 18:00N 43°22' W 003°06'0 0.4
2017-Sep-19 17:30N 43°22' W 003°06'1 1.6
2017-Sep-19 17:00N 43°22' W 003°05'0 0.0
2017-Sep-19 16:31N 43°22' W 003°05'1 3.0
2017-Sep-19 16:00N 43°22' W 003°03'1 0.4
2017-Sep-19 12:42N 43°22' W 003°05'0 0.0
2017-Sep-19 12:30N 43°22' W 003°05'0 0.0
2017-Sep-19 12:01N 43°22' W 003°05'0 0.0
2017-Sep-19 11:30N 43°22' W 003°05'2 3.2
2017-Sep-19 11:00N 43°21' W 003°03'0 1.0
2017-Sep-19 10:31N 43°21' W 003°03'1 2.7
2017-Sep-19 10:00N 43°22' W 003°04'0 0.5
2017-Sep-19 09:30N 43°22' W 003°05'0 0.0
2017-Sep-19 09:01N 43°22' W 003°05'0 0.0
2017-Sep-19 08:31N 43°22' W 003°05'0 0.0
2017-Sep-19 08:01N 43°22' W 003°05'0 0.0
2017-Sep-19 07:30N 43°22' W 003°05'0 0.0
2017-Sep-19 07:00N 43°22' W 003°05'0 0.0
2017-Sep-19 06:30N 43°22' W 003°05'0 0.0
2017-Sep-19 06:00N 43°22' W 003°05'0 0.0
2017-Sep-19 05:30N 43°22' W 003°05'0 0.0
2017-Sep-19 05:00N 43°22' W 003°05'0 0.0
2017-Sep-19 04:30N 43°22' W 003°05'0 0.0
2017-Sep-19 04:00N 43°22' W 003°05'0 0.0
2017-Sep-19 03:31N 43°22' W 003°05'0 0.0
2017-Sep-19 03:00N 43°22' W 003°05'0 0.0
2017-Sep-19 02:31N 43°22' W 003°05'2 4.7
2017-Sep-19 02:00N 43°20' W 003°02'0 0.5
2017-Sep-19 01:30N 43°20' W 003°02'2 3.7
2017-Sep-19 01:00N 43°22' W 003°03'1 2.0
2017-Sep-19 00:30N 43°22' W 003°05'0 0.0
2017-Sep-19 00:01N 43°22' W 003°05'0 0.0
2017-Sep-18 23:30N 43°22' W 003°05'0 0.0
2017-Sep-18 23:00N 43°22' W 003°05'0 0.0
2017-Sep-18 22:30N 43°22' W 003°05'0 0.0
2017-Sep-18 22:00N 43°22' W 003°05'0 0.0
2017-Sep-18 21:30N 43°22' W 003°05'0 0.0
2017-Sep-18 21:01N 43°22' W 003°05'0 0.0
2017-Sep-18 20:30N 43°22' W 003°05'0 0.0
2017-Sep-18 20:00N 43°22' W 003°05'0 0.0
2017-Sep-18 19:30N 43°22' W 003°05'0 0.0
2017-Sep-18 19:00N 43°22' W 003°05'0 0.0
2017-Sep-18 18:31N 43°22' W 003°05'0 0.0
2017-Sep-18 18:00N 43°22' W 003°05'0 0.0
2017-Sep-18 17:30N 43°22' W 003°05'0 0.0
2017-Sep-18 17:00N 43°22' W 003°05'0 0.0
2017-Sep-18 16:30N 43°22' W 003°05'0 0.0
2017-Sep-18 16:00N 43°22' W 003°05'1 1.6
2017-Sep-18 15:30N 43°22' W 003°06'0 0.0
2017-Sep-18 15:00N 43°22' W 003°06'1 1.2
2017-Sep-18 14:30N 43°22' W 003°05'0 0.1
2017-Sep-18 14:00N 43°22' W 003°05'1 1.2
2017-Sep-18 13:30N 43°22' W 003°06'0 0.0
2017-Sep-18 13:00N 43°22' W 003°06'1 1.6
2017-Sep-18 12:30N 43°22' W 003°05'0 0.0
2017-Sep-18 12:00N 43°22' W 003°05'0 0.0
2017-Sep-18 11:30N 43°22' W 003°05'0 0.0
2017-Sep-18 11:01N 43°22' W 003°05'0 0.0
2017-Sep-18 10:31N 43°22' W 003°05'0 0.0
2017-Sep-18 10:00N 43°22' W 003°05'0 0.0
2017-Sep-18 09:30N 43°22' W 003°05'0 0.0
2017-Sep-18 09:00N 43°22' W 003°05'0 0.0
2017-Sep-18 08:30N 43°22' W 003°05'0 0.0
2017-Sep-18 08:01N 43°22' W 003°05'0 0.0
2017-Sep-18 07:30N 43°22' W 003°05'0 0.0
2017-Sep-18 07:01N 43°22' W 003°05'0 0.0
2017-Sep-18 06:30N 43°22' W 003°05'0 0.0
2017-Sep-18 06:00N 43°22' W 003°05'0 0.0
2017-Sep-18 05:30N 43°22' W 003°05'0 0.6
2017-Sep-18 05:00N 43°22' W 003°04'2 3.0
2017-Sep-18 04:30N 43°21' W 003°03'1 1.6
2017-Sep-18 04:00N 43°22' W 003°03'1 3.0
2017-Sep-18 03:30N 43°22' W 003°05'0 0.0
2017-Sep-18 03:01N 43°22' W 003°05'0 0.0
2017-Sep-18 02:30N 43°22' W 003°05'0 0.0
2017-Sep-18 02:00N 43°22' W 003°05'0 0.0
2017-Sep-18 01:31N 43°22' W 003°05'0 0.0
2017-Sep-18 01:01N 43°22' W 003°05'0 0.0
2017-Sep-18 00:30N 43°22' W 003°05'0 0.0
2017-Sep-18 00:00N 43°22' W 003°05'2 3.6
2017-Sep-17 23:30N 43°21' W 003°03'0 0.2
2017-Sep-17 23:00N 43°21' W 003°03'0 0.4
2017-Sep-17 22:30N 43°21' W 003°03'1 2.4
2017-Sep-17 22:00N 43°22' W 003°04'1 1.2
2017-Sep-17 21:30N 43°22' W 003°05'0 0.0
2017-Sep-17 21:00N 43°22' W 003°05'0 0.0
2017-Sep-17 20:30N 43°22' W 003°05'0 0.0
2017-Sep-17 20:01N 43°22' W 003°05'0 0.0
2017-Sep-17 19:30N 43°22' W 003°05'0 0.0
2017-Sep-17 19:00N 43°22' W 003°05'0 0.0
2017-Sep-17 18:30N 43°22' W 003°05'0 0.0
2017-Sep-17 18:01N 43°22' W 003°05'0 0.0
2017-Sep-17 17:30N 43°22' W 003°05'0 0.0
2017-Sep-17 17:00N 43°22' W 003°05'0 0.0
2017-Sep-17 16:30N 43°22' W 003°05'0 0.0
2017-Sep-17 16:01N 43°22' W 003°05'0 0.0
2017-Sep-17 15:31N 43°22' W 003°05'0 0.0
2017-Sep-17 15:01N 43°22' W 003°05'0 0.0
2017-Sep-17 14:30N 43°22' W 003°05'0 0.0
2017-Sep-17 14:00N 43°22' W 003°05'0 0.0
2017-Sep-17 13:31N 43°22' W 003°05'0 0.0
2017-Sep-17 13:00N 43°22' W 003°05'0 0.0
2017-Sep-17 12:31N 43°22' W 003°05'0 0.0
2017-Sep-17 12:00N 43°22' W 003°05'0 0.0
2017-Sep-17 11:30N 43°22' W 003°05'0 0.0
2017-Sep-17 11:00N 43°22' W 003°05'0 0.0
2017-Sep-17 10:30N 43°22' W 003°05'0 0.0
2017-Sep-17 10:00N 43°22' W 003°05'0 0.0
2017-Sep-17 09:30N 43°22' W 003°05'0 0.0
2017-Sep-17 09:00N 43°22' W 003°05'0 0.0
2017-Sep-17 08:30N 43°22' W 003°05'0 0.0
2017-Sep-17 08:01N 43°22' W 003°05'0 0.0
2017-Sep-17 07:30N 43°22' W 003°05'0 0.0
2017-Sep-17 07:01N 43°22' W 003°05'0 0.0
2017-Sep-17 06:30N 43°22' W 003°05'0 0.0
2017-Sep-17 06:01N 43°22' W 003°05'0 0.0
2017-Sep-17 05:31N 43°22' W 003°05'2 3.1
2017-Sep-17 05:01N 43°21' W 003°03'0 0.7
2017-Sep-17 04:30N 43°21' W 003°03'2 3.0
2017-Sep-17 04:00N 43°22' W 003°05'0 0.0
2017-Sep-17 03:30N 43°22' W 003°05'0 0.0
2017-Sep-17 03:00N 43°22' W 003°05'0 0.0
2017-Sep-17 02:31N 43°22' W 003°05'0 0.0
2017-Sep-17 02:00N 43°22' W 003°05'0 0.0
2017-Sep-17 01:30N 43°22' W 003°05'0 0.0
2017-Sep-17 01:00N 43°22' W 003°05'1 1.6
2017-Sep-17 00:30N 43°22' W 003°06'0 0.0
2017-Sep-17 00:00N 43°22' W 003°06'0 0.0
2017-Sep-16 23:31N 43°22' W 003°06'1 1.2
2017-Sep-16 23:01N 43°22' W 003°05'1 1.4
2017-Sep-16 22:31N 43°22' W 003°05'0 0.2
2017-Sep-16 22:00N 43°22' W 003°05'0 0.0
2017-Sep-16 21:30N 43°22' W 003°05'0 0.0
2017-Sep-16 21:00N 43°22' W 003°05'0 0.0
2017-Sep-16 20:30N 43°22' W 003°05'0 0.0
2017-Sep-16 20:00N 43°22' W 003°05'0 0.0
2017-Sep-16 19:30N 43°22' W 003°05'0 0.0
2017-Sep-16 19:00N 43°22' W 003°05'0 0.0
2017-Sep-16 18:30N 43°22' W 003°05'0 0.0
2017-Sep-16 18:00N 43°22' W 003°05'0 0.0
2017-Sep-16 17:30N 43°22' W 003°05'0 0.0
2017-Sep-16 17:00N 43°22' W 003°05'0 0.0
2017-Sep-16 16:30N 43°22' W 003°05'0 0.0
2017-Sep-16 16:00N 43°22' W 003°05'2 3.6
2017-Sep-16 15:31N 43°21' W 003°03'1 2.4
2017-Sep-16 15:00N 43°22' W 003°03'1 2.1
2017-Sep-16 14:30N 43°22' W 003°05'0 0.0
2017-Sep-16 14:00N 43°22' W 003°05'0 0.0
2017-Sep-16 13:31N 43°22' W 003°05'0 0.0
2017-Sep-16 13:00N 43°22' W 003°05'0 0.0
2017-Sep-16 12:30N 43°22' W 003°05'0 0.0
2017-Sep-16 12:00N 43°22' W 003°05'0 0.0
2017-Sep-16 11:30N 43°22' W 003°05'0 0.0
2017-Sep-16 11:00N 43°22' W 003°05'0 0.0
2017-Sep-16 10:30N 43°22' W 003°05'0 0.0
2017-Sep-16 10:00N 43°22' W 003°05'0 0.0
2017-Sep-16 09:30N 43°22' W 003°05'0 0.0
2017-Sep-16 09:00N 43°22' W 003°05'0 0.0
2017-Sep-16 08:30N 43°22' W 003°05'0 0.0
2017-Sep-16 08:00N 43°22' W 003°05'0 0.0
2017-Sep-16 07:30N 43°22' W 003°05'0 0.0
2017-Sep-16 07:00N 43°22' W 003°05'0 0.0
2017-Sep-16 06:30N 43°22' W 003°05'0 0.0
2017-Sep-16 06:00N 43°22' W 003°05'0 0.0
2017-Sep-16 05:30N 43°22' W 003°05'0 0.0
2017-Sep-16 05:00N 43°22' W 003°05'0 0.0
2017-Sep-16 04:30N 43°22' W 003°05'0 0.0
2017-Sep-16 04:00N 43°22' W 003°05'0 0.0
2017-Sep-16 03:30N 43°22' W 003°05'0 0.0
2017-Sep-16 03:00N 43°22' W 003°05'0 0.0
2017-Sep-16 02:30N 43°22' W 003°05'0 0.0
2017-Sep-16 02:00N 43°22' W 003°05'0 0.0
2017-Sep-16 01:30N 43°22' W 003°05'0 0.0
2017-Sep-16 01:00N 43°22' W 003°05'0 0.0
2017-Sep-16 00:30N 43°22' W 003°05'0 0.0
2017-Sep-16 00:01N 43°22' W 003°05'0 0.0
2017-Sep-15 23:30N 43°22' W 003°05'0 0.0
2017-Sep-15 23:00N 43°22' W 003°05'0 0.0
2017-Sep-15 22:30N 43°22' W 003°05'0 0.0
2017-Sep-15 22:01N 43°22' W 003°05'0 0.0
2017-Sep-15 21:30N 43°22' W 003°05'1 2.4
2017-Sep-15 21:01N 43°22' W 003°03'1 2.1
2017-Sep-15 20:30N 43°21' W 003°03'2 3.4
2017-Sep-15 20:00N 43°22' W 003°05'0 0.0
2017-Sep-15 19:30N 43°22' W 003°05'0 0.0
2017-Sep-15 19:00N 43°22' W 003°05'0 0.0
2017-Sep-15 18:30N 43°22' W 003°05'0 0.0
2017-Sep-15 18:00N 43°22' W 003°05'0 0.0
2017-Sep-15 17:30N 43°22' W 003°05'0 0.0
2017-Sep-15 17:00N 43°22' W 003°05'0 0.0
2017-Sep-15 16:30N 43°22' W 003°05'0 0.0
2017-Sep-15 16:00N 43°22' W 003°05'0 0.0
2017-Sep-15 15:30N 43°22' W 003°05'0 0.0
2017-Sep-15 15:00N 43°22' W 003°05'0 0.0
2017-Sep-15 14:30N 43°22' W 003°05'3 5.3
2017-Sep-15 14:00N 43°20' W 003°02'0 0.3
2017-Sep-15 13:30N 43°20' W 003°02'3 5.4
2017-Sep-15 13:00N 43°22' W 003°05'0 0.0
2017-Sep-15 12:30N 43°22' W 003°05'0 0.0
2017-Sep-15 12:00N 43°22' W 003°05'0 0.0
2017-Sep-15 11:30N 43°22' W 003°05'0 0.0
2017-Sep-15 11:00N 43°22' W 003°05'0 0.0
2017-Sep-15 10:30N 43°22' W 003°05'0 0.0
2017-Sep-15 10:00N 43°22' W 003°05'0 0.0
2017-Sep-15 09:30N 43°22' W 003°05'0 0.0
2017-Sep-15 09:00N 43°22' W 003°05'0 0.0
2017-Sep-15 08:30N 43°22' W 003°05'0 0.0
2017-Sep-15 08:00N 43°22' W 003°05'0 0.0
2017-Sep-15 07:30N 43°22' W 003°05'0 0.4
2017-Sep-15 07:00N 43°22' W 003°05'0 0.7
2017-Sep-15 06:31N 43°22' W 003°05'1 1.8
2017-Sep-15 06:00N 43°23' W 003°05'0 0.2
2017-Sep-15 05:30N 43°22' W 003°05'1 1.5
2017-Sep-15 05:00N 43°22' W 003°05'0 0.0
2017-Sep-15 04:30N 43°22' W 003°05'0 0.0
2017-Sep-15 04:00N 43°22' W 003°05'0 0.0
2017-Sep-15 03:30N 43°22' W 003°05'0 0.0
2017-Sep-15 03:00N 43°22' W 003°05'0 0.0
2017-Sep-15 02:30N 43°22' W 003°05'0 0.0
2017-Sep-15 02:00N 43°22' W 003°05'0 0.0
2017-Sep-15 01:30N 43°22' W 003°05'0 0.0
2017-Sep-15 01:00N 43°22' W 003°05'0 0.0
2017-Sep-15 00:30N 43°22' W 003°05'0 0.0
2017-Sep-15 00:00N 43°22' W 003°05'0 0.0
2017-Sep-14 23:30N 43°22' W 003°05'0 0.0
2017-Sep-14 23:00N 43°22' W 003°05'0 0.0
2017-Sep-14 22:30N 43°22' W 003°05'0 0.0
2017-Sep-14 22:00N 43°22' W 003°05'0 0.0
2017-Sep-14 21:30N 43°22' W 003°05'0 0.0
2017-Sep-14 21:00N 43°22' W 003°05'0 0.0
2017-Sep-14 20:30N 43°22' W 003°05'0 0.0
2017-Sep-14 20:00N 43°22' W 003°05'0 0.0
2017-Sep-14 19:30N 43°22' W 003°05'0 0.0
2017-Sep-14 19:00N 43°22' W 003°05'0 0.0
2017-Sep-14 18:30N 43°22' W 003°05'1 1.9
2017-Sep-14 18:00N 43°22' W 003°06'0 0.9
2017-Sep-14 17:30N 43°22' W 003°06'0 0.9
2017-Sep-14 17:00N 43°22' W 003°05'1 1.5
2017-Sep-14 16:30N 43°22' W 003°05'0 0.0
2017-Sep-14 16:00N 43°22' W 003°05'0 0.0
2017-Sep-14 15:30N 43°22' W 003°05'0 0.0
2017-Sep-14 15:00N 43°22' W 003°05'0 0.0
2017-Sep-14 14:30N 43°22' W 003°05'0 0.0
2017-Sep-14 14:01N 43°22' W 003°05'0 0.0
2017-Sep-14 13:30N 43°22' W 003°05'1 1.4
2017-Sep-14 13:00N 43°22' W 003°06'0 0.0
2017-Sep-14 12:30N 43°22' W 003°06'1 1.4
2017-Sep-14 12:00N 43°22' W 003°05'0 0.0
2017-Sep-14 11:30N 43°22' W 003°05'0 0.0
2017-Sep-14 11:00N 43°22' W 003°05'  

Dump ship's entire track history